Time;durP1;ratioP1;P1;durP2;ratioP2;P2;SDS_P1;SDS_P2;PMS_P1;PMS_P2;Temp;Humidity;BMP_temperature;BMP_pressure;BME280_temperature;BME280_humidity;BME280_pressure;Samples;Min_cycle;Max_cycle;Signal;HPM_P1;HPM_P2
2023/03/30 00:01:49;;;;;;;6.15;2.25;;;;;;;16.46;52.29;99249.47;12190619;19;20015;-83
2023/03/30 00:05:55;;;;;;;4.95;2.00;;;;;;;16.59;52.03;99243.09;12172161;19;20013;-80
2023/03/30 00:10:02;;;;;;;8.52;2.08;;;;;;;16.69;52.12;99250.47;12192630;19;20528;-81
2023/03/30 00:14:04;;;;;;;9.95;2.50;;;;;;;16.68;52.34;99248.00;12194577;19;20007;-81
2023/03/30 00:18:06;;;;;;;7.25;2.65;;;;;;;16.66;52.58;99234.41;12174437;19;20014;-80
2023/03/30 00:22:08;;;;;;;9.87;2.17;;;;;;;16.65;53.01;99243.84;12188424;19;20003;-80
2023/03/30 00:26:11;;;;;;;9.23;2.20;;;;;;;16.58;53.08;99238.69;12190767;19;20007;-81
2023/03/30 00:30:16;;;;;;;8.32;2.70;;;;;;;16.55;53.41;99238.47;12168583;19;20003;-82
2023/03/30 00:34:18;;;;;;;10.57;2.28;;;;;;;16.53;53.32;99224.84;12194655;19;20027;-80
2023/03/30 00:38:20;;;;;;;10.48;2.75;;;;;;;16.50;53.79;99224.66;12194513;19;20014;-80
2023/03/30 00:42:22;;;;;;;7.30;2.10;;;;;;;16.44;53.82;99225.84;12171164;19;20031;-81
2023/03/30 00:46:23;;;;;;;8.73;2.00;;;;;;;16.48;54.24;99219.41;12187591;19;20269;-80
2023/03/30 00:50:33;;;;;;;6.07;2.10;;;;;;;16.44;54.46;99220.28;12176241;19;20372;-80
2023/03/30 00:54:37;;;;;;;7.13;2.15;;;;;;;16.38;54.57;99211.22;12212246;19;20006;-81
2023/03/30 00:58:40;;;;;;;8.73;2.10;;;;;;;16.26;55.54;99216.41;12225111;19;21176;-80
2023/03/30 01:02:48;;;;;;;10.82;2.83;;;;;;;16.17;55.87;99208.75;12209021;19;20018;-80
2023/03/30 01:06:51;;;;;;;7.35;2.08;;;;;;;16.07;56.44;99205.31;12226317;19;20011;-80
2023/03/30 01:10:52;;;;;;;12.68;2.15;;;;;;;15.96;56.79;99199.06;12206494;19;20006;-81
2023/03/30 01:14:56;;;;;;;9.18;1.85;;;;;;;15.86;57.26;99197.28;12175655;19;20010;-81
2023/03/30 01:19:35;;;;;;;11.13;2.28;;;;;;;15.83;57.87;99199.84;12193741;19;20370;-80
2023/03/30 01:23:51;;;;;;;8.65;2.17;;;;;;;15.82;58.23;99204.53;12167516;19;20026;-80
2023/03/30 01:28:11;;;;;;;7.90;2.15;;;;;;;15.82;58.39;99187.88;12208485;19;20003;-81
2023/03/30 01:32:36;;;;;;;9.93;3.33;;;;;;;15.84;58.82;99201.47;12200364;19;21393;-80
2023/03/30 01:37:10;;;;;;;5.85;1.88;;;;;;;15.85;58.97;99206.72;12177729;19;20011;-80
2023/03/30 01:41:37;;;;;;;7.00;2.00;;;;;;;15.85;59.29;99203.94;12196979;19;20003;-80
2023/03/30 01:45:45;;;;;;;8.23;2.03;;;;;;;15.91;59.07;99199.13;12173337;19;20564;-80
2023/03/30 01:50:11;;;;;;;7.63;2.65;;;;;;;15.90;59.33;99195.53;12194426;19;21477;-80
2023/03/30 01:54:21;;;;;;;10.30;2.30;;;;;;;15.88;59.49;99185.84;12175881;19;20009;-80
2023/03/30 01:58:36;;;;;;;7.75;2.40;;;;;;;15.87;59.37;99196.13;12194612;19;20734;-79
2023/03/30 02:02:42;;;;;;;10.25;2.78;;;;;;;15.84;59.59;99202.28;12169773;19;20010;-80
2023/03/30 02:07:06;;;;;;;10.82;2.40;;;;;;;15.84;60.18;99202.28;12195808;19;20603;-80
2023/03/30 02:11:08;;;;;;;7.88;2.08;;;;;;;15.83;60.58;99203.44;12195149;19;20035;-79
2023/03/30 02:15:11;;;;;;;8.82;2.15;;;;;;;15.82;60.82;99210.09;12172598;19;20014;-81
2023/03/30 02:19:14;;;;;;;8.43;2.58;;;;;;;15.88;60.60;99213.63;12193149;19;19999;-80
2023/03/30 02:23:20;;;;;;;7.50;2.60;;;;;;;15.92;60.66;99232.19;12192746;19;21435;-80
2023/03/30 02:27:23;;;;;;;12.77;2.35;;;;;;;15.94;61.04;99216.06;12171658;19;20074;-80
2023/03/30 02:31:25;;;;;;;12.50;2.15;;;;;;;15.91;61.63;99216.66;12198422;19;20011;-80
2023/03/30 02:35:54;;;;;;;11.93;2.40;;;;;;;15.89;62.32;99199.44;12184638;19;19999;-80
2023/03/30 02:40:12;;;;;;;10.05;2.70;;;;;;;15.91;62.18;99191.66;12203448;19;20015;-80
2023/03/30 02:44:42;;;;;;;8.65;2.17;;;;;;;15.88;62.34;99175.59;12204652;19;20006;-80
2023/03/30 02:49:00;;;;;;;4.97;1.60;;;;;;;15.92;62.19;99170.25;12182347;19;20684;-80
2023/03/30 02:53:16;;;;;;;8.82;2.30;;;;;;;16.00;62.01;99186.22;12204185;19;20002;-80
2023/03/30 02:57:32;;;;;;;13.15;2.40;;;;;;;16.12;61.44;99208.84;12182520;19;20035;-80
2023/03/30 03:02:06;;;;;;;6.40;2.10;;;;;;;16.24;61.82;99219.50;12210064;19;20006;-81
2023/03/30 03:06:08;;;;;;;11.00;3.50;;;;;;;16.27;61.30;99232.81;12196406;19;20013;-81
2023/03/30 03:10:15;;;;;;;6.45;1.77;;;;;;;16.29;61.16;99213.84;12265406;19;19995;-80
2023/03/30 03:14:17;;;;;;;6.15;2.05;;;;;;;16.30;61.03;99215.53;12269731;19;20066;-79
2023/03/30 03:18:20;;;;;;;7.63;2.40;;;;;;;16.29;60.73;99235.28;12207663;19;20006;-80
2023/03/30 03:22:22;;;;;;;7.03;2.28;;;;;;;16.28;60.93;99250.31;12204874;19;20014;-79
2023/03/30 03:26:25;;;;;;;11.35;2.30;;;;;;;16.21;61.51;99256.25;12196832;19;20006;-80
2023/03/30 03:30:28;;;;;;;8.23;3.15;;;;;;;16.13;63.09;99235.50;12200980;19;20003;-80
2023/03/30 03:34:43;;;;;;;6.30;2.25;;;;;;;15.95;66.28;99244.66;12196314;19;20134;-79
2023/03/30 03:38:46;;;;;;;11.95;3.03;;;;;;;15.72;69.54;99232.47;12181194;19;20003;-80
2023/03/30 03:42:49;;;;;;;8.38;3.40;;;;;;;15.46;71.15;99218.03;12195071;19;20014;-80
2023/03/30 03:46:51;;;;;;;10.48;2.60;;;;;;;15.31;72.82;99191.28;12200233;19;20035;-80
2023/03/30 03:50:55;;;;;;;5.20;1.90;;;;;;;15.24;73.71;99144.47;12177409;19;20429;-81
2023/03/30 03:54:58;;;;;;;10.02;3.10;;;;;;;15.16;74.19;99133.19;12199089;19;20009;-80
2023/03/30 03:59:02;;;;;;;9.63;2.20;;;;;;;15.13;74.31;99111.59;12226838;19;20002;-80
2023/03/30 04:03:04;;;;;;;7.82;2.33;;;;;;;15.08;75.13;99092.22;12227917;19;20014;-80
2023/03/30 04:07:06;;;;;;;10.67;3.07;;;;;;;15.04;75.46;99095.59;12206463;19;20006;-80
2023/03/30 04:11:10;;;;;;;11.18;2.28;;;;;;;15.01;76.02;99074.00;12204243;19;20011;-81
2023/03/30 04:15:32;;;;;;;8.65;2.50;;;;;;;15.00;76.29;99063.22;12181646;19;20017;-79
2023/03/30 04:19:44;;;;;;;8.63;2.65;;;;;;;14.96;77.34;99060.22;12206581;19;20058;-81
2023/03/30 04:23:52;;;;;;;9.85;3.00;;;;;;;14.93;77.50;99060.81;12181896;19;19999;-81
2023/03/30 04:28:20;;;;;;;8.45;2.22;;;;;;;14.90;77.39;99055.00;12199640;19;20668;-81
2023/03/30 04:32:43;;;;;;;5.88;2.45;;;;;;;14.88;77.70;99038.69;12183131;19;20355;-80
2023/03/30 04:37:00;;;;;;;7.20;2.40;;;;;;;14.87;78.36;99023.13;12204546;19;20003;-79
2023/03/30 04:41:34;;;;;;;7.80;2.65;;;;;;;14.86;78.27;99046.47;12199081;19;20325;-80
2023/03/30 04:45:56;;;;;;;17.52;2.42;;;;;;;14.95;78.33;99050.22;12201092;19;20032;-80
2023/03/30 04:50:33;;;;;;;9.50;2.10;;;;;;;15.03;78.27;99082.03;12176413;19;20121;-81
2023/03/30 04:55:14;;;;;;;8.65;1.95;;;;;;;15.10;79.16;99114.97;12194566;19;20086;-81
2023/03/30 04:59:34;;;;;;;11.63;2.75;;;;;;;15.15;79.52;99151.00;12176614;19;20028;-79
2023/03/30 05:03:45;;;;;;;14.60;3.22;;;;;;;15.07;82.95;99165.50;12196250;19;20007;-79
2023/03/30 05:08:05;;;;;;;12.13;2.97;;;;;;;14.87;87.23;99167.38;12201924;19;20027;-79
2023/03/30 05:12:22;;;;;;;10.80;2.72;;;;;;;14.62;93.02;99135.19;12174065;19;20006;-80
2023/03/30 05:16:35;;;;;;;15.85;2.85;;;;;;;14.43;95.79;99124.00;12196792;19;20007;-79
2023/03/30 05:20:37;;;;;;;12.05;3.47;;;;;;;14.30;97.93;99144.06;12172257;19;20011;-79
2023/03/30 05:24:57;;;;;;;14.20;3.05;;;;;;;14.19;99.82;99154.44;12194712;19;20005;-79
2023/03/30 05:29:14;;;;;;;11.75;3.47;;;;;;;14.13;100.00;99112.06;12193818;19;20814;-79
2023/03/30 05:33:34;;;;;;;8.60;2.95;;;;;;;14.07;100.00;99098.56;12171319;19;20483;-78
2023/03/30 05:37:54;;;;;;;11.85;3.10;;;;;;;13.91;100.00;99109.75;12202038;19;20078;-78
2023/03/30 05:42:04;;;;;;;15.88;3.30;;;;;;;13.80;100.00;99152.50;12182840;19;20007;-79
2023/03/30 05:46:23;;;;;;;15.40;3.30;;;;;;;13.64;100.00;99178.63;12207762;19;20006;-81
2023/03/30 05:50:46;;;;;;;16.80;4.13;;;;;;;13.49;100.00;99187.00;12187792;19;20023;-82
2023/03/30 05:55:00;;;;;;;10.50;3.90;;;;;;;13.38;100.00;99191.75;12211295;19;20007;-83
2023/03/30 05:59:11;;;;;;;13.55;3.67;;;;;;;13.27;100.00;99207.56;12211709;19;20009;-83
2023/03/30 06:03:32;;;;;;;10.00;3.83;;;;;;;13.21;100.00;99223.34;12186975;19;20345;-83
2023/03/30 06:07:36;;;;;;;12.43;3.50;;;;;;;13.11;100.00;99231.66;12208399;19;20010;-83
2023/03/30 06:11:39;;;;;;;15.30;3.53;;;;;;;12.99;100.00;99240.25;12187686;19;20003;-83
2023/03/30 06:15:51;;;;;;;13.25;4.03;;;;;;;12.98;100.00;99201.81;12210112;19;20781;-84
2023/03/30 06:19:56;;;;;;;14.18;4.05;;;;;;;12.92;100.00;99200.19;12208040;19;20009;-84
2023/03/30 06:24:04;;;;;;;10.70;3.70;;;;;;;12.88;100.00;99182.47;12159122;19;20003;-85
2023/03/30 06:28:08;;;;;;;8.90;3.30;;;;;;;12.88;100.00;99188.84;12212044;19;20002;-85
2023/03/30 06:32:10;;;;;;;11.10;3.13;;;;;;;12.88;100.00;99207.38;12212457;19;20003;-86
2023/03/30 06:36:32;;;;;;;13.17;3.50;;;;;;;12.89;100.00;99222.88;12200569;19;20006;-85
2023/03/30 06:40:47;;;;;;;10.50;2.92;;;;;;;12.84;100.00;99195.22;12222964;19;20021;-85
2023/03/30 06:44:50;;;;;;;12.18;4.25;;;;;;;12.84;100.00;99192.44;12206031;19;20017;-85
2023/03/30 06:48:54;;;;;;;9.65;3.80;;;;;;;12.83;100.00;99188.88;12223669;19;20575;-84
2023/03/30 06:53:15;;;;;;;11.23;3.83;;;;;;;12.78;100.00;99172.28;12222038;19;20032;-84
2023/03/30 06:57:20;;;;;;;9.85;3.45;;;;;;;12.84;100.00;99179.44;12206219;19;20017;-84
2023/03/30 07:01:22;;;;;;;11.75;3.47;;;;;;;12.82;100.00;99191.88;12229252;19;20034;-83
2023/03/30 07:05:49;;;;;;;8.07;3.42;;;;;;;12.80;100.00;99202.41;12218667;19;20008;-86
2023/03/30 07:10:09;;;;;;;10.15;2.70;;;;;;;12.78;100.00;99188.88;12245465;19;20010;-85
2023/03/30 07:14:12;;;;;;;11.32;3.22;;;;;;;12.74;100.00;99188.59;12247266;19;20006;-86
2023/03/30 07:18:14;;;;;;;7.63;2.60;;;;;;;12.80;100.00;99183.91;12218954;19;20077;-87
2023/03/30 07:22:16;;;;;;;10.90;3.45;;;;;;;12.81;100.00;99151.53;12231376;19;20017;-82
2023/03/30 07:26:20;;;;;;;11.15;3.20;;;;;;;12.80;100.00;99134.13;12229818;19;20007;-85
2023/03/30 07:30:35;;;;;;;11.50;3.13;;;;;;;12.87;100.00;99107.00;12215693;19;20021;-85
2023/03/30 07:34:39;;;;;;;7.18;2.42;;;;;;;12.89;100.00;99057.78;12226079;19;20015;-85
2023/03/30 07:38:42;;;;;;;10.07;2.73;;;;;;;12.87;100.00;99081.28;12202284;19;20022;-88
2023/03/30 07:42:46;;;;;;;5.85;2.60;;;;;;;12.87;100.00;99109.75;12222939;19;20281;-84
2023/03/30 07:46:50;;;;;;;7.82;3.28;;;;;;;12.91;100.00;99133.00;12225373;19;20002;-84
2023/03/30 07:51:04;;;;;;;6.10;2.45;;;;;;;12.94;100.00;99151.78;12202955;19;20006;-87
2023/03/30 07:55:11;;;;;;;;;;;;;;;12.99;100.00;99161.97;12218528;19;20453;-84
2023/03/30 07:59:26;;;;;;;11.10;2.78;;;;;;;13.09;100.00;99163.91;12211075;19;19926;-83
2023/03/30 08:03:35;;;;;;;7.10;3.25;;;;;;;13.05;100.00;99162.81;12226812;19;20011;-85
2023/03/30 08:07:38;;;;;;;7.43;2.90;;;;;;;13.13;100.00;99140.91;12218601;19;20014;-83
2023/03/30 08:11:46;;;;;;;10.07;3.65;;;;;;;13.10;100.00;99158.09;12190259;19;20019;-84
2023/03/30 08:15:53;;;;;;;8.00;3.88;;;;;;;13.18;100.00;99176.88;12214844;19;20015;-81
2023/03/30 08:19:55;;;;;;;8.73;3.10;;;;;;;13.21;100.00;99192.91;12220837;19;20038;-83
2023/03/30 08:23:58;;;;;;;11.18;3.80;;;;;;;13.36;100.00;99189.28;12200147;19;20049;-82
2023/03/30 08:28:01;;;;;;;7.65;3.30;;;;;;;13.52;100.00;99197.50;12214928;19;20066;-82
2023/03/30 08:32:02;;;;;;;6.97;3.40;;;;;;;13.71;100.00;99200.44;12214398;19;20014;-82
2023/03/30 08:36:05;;;;;;;11.23;3.45;;;;;;;13.92;100.00;99210.31;12193185;19;20476;-83
2023/03/30 08:40:11;;;;;;;9.82;3.50;;;;;;;14.11;100.00;99208.50;12213315;19;20014;-82
2023/03/30 08:44:35;;;;;;;10.07;4.25;;;;;;;14.45;100.00;99210.44;12212728;19;20015;-81
2023/03/30 08:48:38;;;;;;;9.60;3.28;;;;;;;14.71;100.00;99202.75;12193061;19;20007;-82
2023/03/30 08:52:41;;;;;;;7.10;3.00;;;;;;;14.85;100.00;99186.28;12213301;19;20035;-81
2023/03/30 08:57:21;;;;;;;8.20;3.25;;;;;;;14.95;100.00;99205.56;12238472;19;20013;-80
2023/03/30 09:01:41;;;;;;;9.55;3.35;;;;;;;14.73;100.00;99214.41;12239308;19;20026;-81
2023/03/30 09:06:17;;;;;;;7.88;3.33;;;;;;;14.60;100.00;99206.75;12198031;19;20027;-81
2023/03/30 09:10:23;;;;;;;6.35;2.90;;;;;;;14.44;100.00;99199.66;12203377;19;20477;-81
2023/03/30 09:14:36;;;;;;;9.80;2.90;;;;;;;14.19;100.00;99211.75;12210339;19;20013;-80
2023/03/30 09:18:41;;;;;;;9.27;3.97;;;;;;;14.12;100.00;99206.56;12223991;19;20073;-81
2023/03/30 09:22:46;;;;;;;12.20;3.67;;;;;;;14.25;100.00;99188.47;12218924;19;20078;-81
2023/03/30 09:27:04;;;;;;;7.13;3.33;;;;;;;14.46;100.00;99189.13;12220515;19;20028;-76
2023/03/30 09:31:20;;;;;;;10.75;3.65;;;;;;;14.69;100.00;99207.78;12274711;19;19998;-79
2023/03/30 09:35:29;;;;;;;6.72;3.55;;;;;;;14.71;100.00;99213.03;12246161;19;20002;-80
2023/03/30 09:39:34;;;;;;;9.68;2.72;;;;;;;14.56;100.00;99231.47;12201566;19;20073;-81
2023/03/30 09:43:42;;;;;;;6.20;2.80;;;;;;;14.41;100.00;99197.47;12222874;19;20019;-81
2023/03/30 09:47:45;;;;;;;8.07;3.20;;;;;;;14.41;100.00;99212.16;12198517;19;20019;-80
2023/03/30 09:52:03;;;;;;;7.28;3.17;;;;;;;14.45;100.00;99215.16;12218417;19;20003;-78
2023/03/30 09:56:34;;;;;;;6.88;2.83;;;;;;;14.55;100.00;99215.94;12219144;19;20010;-80
2023/03/30 10:00:42;;;;;;;7.43;3.00;;;;;;;14.65;100.00;99215.03;12193669;19;20352;-80
2023/03/30 10:04:51;;;;;;;6.32;2.53;;;;;;;14.85;100.00;99213.19;12224838;19;20035;-81
2023/03/30 10:08:55;;;;;;;8.57;2.88;;;;;;;15.08;100.00;99220.72;12214560;19;20075;-78
2023/03/30 10:13:31;;;;;;;6.15;2.78;;;;;;;15.25;100.00;99217.47;12237546;19;20007;-81
2023/03/30 10:17:33;;;;;;;6.22;2.70;;;;;;;15.36;100.00;99240.38;12211965;19;20007;-79
2023/03/30 10:21:40;;;;;;;6.57;2.67;;;;;;;15.46;100.00;99235.53;12236517;19;20015;-80
2023/03/30 10:25:42;;;;;;;6.75;2.33;;;;;;;15.56;100.00;99225.44;12229813;19;20010;-81
2023/03/30 10:29:45;;;;;;;4.68;2.55;;;;;;;15.79;100.00;99218.19;12210578;19;20010;-79
2023/03/30 10:33:48;;;;;;;5.05;2.20;;;;;;;16.16;98.37;99214.63;12229799;19;20023;-79
2023/03/30 10:37:55;;;;;;;8.65;3.20;;;;;;;16.39;93.02;99229.56;12206384;19;20472;-79
2023/03/30 10:42:03;;;;;;;5.88;2.58;;;;;;;16.57;86.65;99227.88;12188400;19;20007;-79
2023/03/30 10:46:21;;;;;;;5.53;2.00;;;;;;;16.77;82.69;99233.09;12214141;19;20014;-80
2023/03/30 10:50:56;;;;;;;5.18;2.83;;;;;;;16.95;81.14;99233.34;12222057;19;20007;-80
2023/03/30 10:55:13;;;;;;;7.05;2.33;;;;;;;16.84;80.96;99232.72;12110907;19;2004229;-78
2023/03/30 10:59:42;;;;;;;8.52;2.47;;;;;;;17.04;80.74;99217.59;12232856;19;20014;-78
2023/03/30 11:03:56;;;;;;;6.85;1.77;;;;;;;16.80;77.77;99226.94;12232671;19;20677;-79
2023/03/30 11:08:05;;;;;;;7.18;2.63;;;;;;;16.64;79.28;99231.09;12260034;19;20017;-78
2023/03/30 11:12:15;;;;;;;9.60;2.30;;;;;;;16.55;81.17;99222.59;12224334;19;20007;-77
2023/03/30 11:16:20;;;;;;;7.05;2.25;;;;;;;16.35;81.83;99218.19;12241376;19;20079;-80
2023/03/30 11:20:30;;;;;;;7.57;2.10;;;;;;;16.35;82.92;99209.84;12208183;19;20025;-79
2023/03/30 11:24:34;;;;;;;5.80;2.30;;;;;;;16.48;82.07;99215.75;12182385;19;20046;-79
2023/03/30 11:29:07;;;;;;;7.40;2.13;;;;;;;16.44;83.31;99209.16;12203748;19;20499;-79
2023/03/30 11:33:24;;;;;;;8.23;2.30;;;;;;;16.48;83.91;99199.94;12195244;19;20041;-79
2023/03/30 11:37:41;;;;;;;5.95;2.17;;;;;;;17.18;80.10;99203.69;12200972;19;20045;-79
2023/03/30 11:42:00;;;;;;;4.50;2.22;;;;;;;17.40;76.84;99209.41;12182967;19;20345;-79
2023/03/30 11:46:13;;;;;;;6.85;2.25;;;;;;;17.34;76.04;99210.63;12207002;19;20118;-80
2023/03/30 11:50:31;;;;;;;3.88;1.42;;;;;;;17.10;76.17;99205.22;12204642;19;20002;-80
2023/03/30 11:54:57;;;;;;;6.93;2.40;;;;;;;17.64;75.72;99203.59;12185648;19;20023;-78
2023/03/30 11:59:22;;;;;;;6.13;1.65;;;;;;;17.31;74.15;99200.94;12205731;19;20006;-79
2023/03/30 12:03:35;;;;;;;5.15;1.45;;;;;;;16.87;75.88;99207.06;12177016;19;20012;-80
2023/03/30 12:07:48;;;;;;;7.32;1.70;;;;;;;16.80;82.22;99207.44;12200847;19;20413;-80
2023/03/30 12:12:02;;;;;;;5.85;1.67;;;;;;;17.79;76.10;99207.19;12182745;19;20078;-80
2023/03/30 12:16:08;;;;;;;5.47;1.52;;;;;;;19.15;70.76;99189.34;12199712;19;20023;-78
2023/03/30 12:20:33;;;;;;;5.85;1.70;;;;;;;20.50;61.93;99195.03;12197479;19;20006;-80
2023/03/30 12:24:50;;;;;;;4.10;1.58;;;;;;;21.77;55.37;99186.03;12178932;19;20466;-78
2023/03/30 12:28:52;;;;;;;6.60;1.35;;;;;;;22.59;50.33;99178.00;12201475;19;20007;-79
2023/03/30 12:33:24;;;;;;;4.20;1.60;;;;;;;22.10;49.55;99169.34;12198371;19;20099;-78
2023/03/30 12:37:35;;;;;;;4.40;1.40;;;;;;;21.44;50.35;99166.28;12208189;19;20010;-78
2023/03/30 12:41:49;;;;;;;6.18;1.67;;;;;;;20.83;52.41;99158.13;12179874;19;20004;-79
2023/03/30 12:46:09;;;;;;;3.78;1.42;;;;;;;20.01;53.90;99150.44;12202890;19;20026;-79
2023/03/30 12:50:47;;;;;;;4.55;1.67;;;;;;;19.38;56.08;99140.63;12212649;19;20078;-81
2023/03/30 12:55:13;;;;;;;5.35;1.45;;;;;;;19.20;52.97;99148.13;12187910;19;20018;-80
2023/03/30 12:59:20;;;;;;;6.03;1.45;;;;;;;20.22;50.35;99133.00;12213713;19;20405;-79
2023/03/30 13:03:48;;;;;;;6.32;1.25;;;;;;;20.23;50.00;99127.09;12190605;19;20014;-79
2023/03/30 13:07:54;;;;;;;4.40;1.17;;;;;;;19.61;49.18;99121.78;12207700;19;20006;-80
2023/03/30 13:11:58;;;;;;;5.22;1.15;;;;;;;19.24;49.94;99120.38;12184669;19;20039;-79
2023/03/30 13:16:00;;;;;;;3.28;1.00;;;;;;;18.88;50.96;99127.78;12206814;19;20021;-79
2023/03/30 13:20:28;;;;;;;3.67;1.10;;;;;;;18.65;51.92;99120.63;12210861;19;20003;-81
2023/03/30 13:24:32;;;;;;;7.25;2.17;;;;;;;18.53;52.16;99112.84;12189573;19;21138;-79
2023/03/30 13:28:35;;;;;;;4.68;1.08;;;;;;;18.64;52.61;99128.13;12212288;19;20019;-78
2023/03/30 13:32:54;;;;;;;3.97;1.00;;;;;;;18.63;51.37;99140.47;12189723;19;20345;-79
2023/03/30 13:37:39;;;;;;;4.45;1.20;;;;;;;18.63;52.13;99148.00;12208300;19;20078;-80
2023/03/30 13:41:56;;;;;;;3.15;1.00;;;;;;;18.56;53.03;99153.19;12181858;19;20070;-81
2023/03/30 13:46:04;;;;;;;7.65;1.00;;;;;;;19.07;53.39;99146.28;12204349;19;20014;-79
2023/03/30 13:50:28;;;;;;;4.07;1.30;;;;;;;20.45;49.96;99142.03;12221237;19;20070;-77
2023/03/30 13:54:33;;;;;;;2.17;0.80;;;;;;;21.24;47.32;99120.19;12231979;19;20018;-77
2023/03/30 13:58:37;;;;;;;4.15;1.02;;;;;;;20.84;44.32;99132.56;12216384;19;20015;-80
2023/03/30 14:02:40;;;;;;;3.15;1.27;;;;;;;20.32;45.12;99131.84;12191252;19;20007;-79
2023/03/30 14:06:49;;;;;;;4.20;0.77;;;;;;;19.74;45.81;99131.19;12216728;19;20066;-80
2023/03/30 14:10:51;;;;;;;4.90;1.10;;;;;;;19.98;45.70;99145.50;12211155;19;20025;-80
2023/03/30 14:14:53;;;;;;;2.70;0.70;;;;;;;20.66;42.19;99133.78;12189674;19;20006;-86
2023/03/30 14:19:43;;;;;;;4.17;1.00;;;;;;;20.71;43.58;99140.03;12209920;19;20527;-80
2023/03/30 14:23:51;;;;;;;4.93;0.90;;;;;;;20.75;42.26;99156.16;12184915;19;20387;-82
2023/03/30 14:27:55;;;;;;;4.65;1.00;;;;;;;20.04;43.47;99144.19;12209498;19;20338;-85
2023/03/30 14:32:01;;;;;;;3.85;1.17;;;;;;;19.63;44.40;99146.59;12209942;19;20081;-83
2023/03/30 14:36:10;;;;;;;5.38;0.82;;;;;;;19.04;45.49;99167.31;12192534;19;20019;-83
2023/03/30 14:40:15;;;;;;;3.25;0.90;;;;;;;18.36;48.25;99202.81;12209307;19;20023;-86
2023/03/30 14:44:21;;;;;;;4.65;1.00;;;;;;;18.06;53.71;99209.13;12209545;19;20030;-86
2023/03/30 14:48:29;;;;;;;3.42;0.75;;;;;;;18.39;54.01;99184.63;12185623;19;20030;-80
2023/03/30 14:52:38;;;;;;;3.40;0.70;;;;;;;18.74;53.03;99182.06;12203770;19;20349;-80
2023/03/30 14:56:43;;;;;;;3.17;0.73;;;;;;;19.31;50.62;99185.00;12187084;19;20010;-81
2023/03/30 15:00:45;;;;;;;4.88;0.85;;;;;;;19.79;50.71;99175.78;12203071;19;20002;-78
2023/03/30 15:04:48;;;;;;;;;;;;;;;20.57;47.72;99181.38;12207202;19;20038;-80
2023/03/30 15:08:50;;;;;;;5.40;0.90;;;;;;;20.00;48.17;99175.97;12184148;19;19923;-81
2023/03/30 15:12:55;;;;;;;5.73;1.20;;;;;;;19.29;49.65;99184.47;12205519;19;20006;-80
2023/03/30 15:16:57;;;;;;;2.38;0.65;;;;;;;18.74;51.36;99190.44;12209237;19;20007;-81
2023/03/30 15:21:01;;;;;;;8.60;1.35;;;;;;;18.36;52.30;99196.41;12184601;19;20369;-79
2023/03/30 15:25:10;;;;;;;3.65;0.90;;;;;;;18.29;52.79;99199.63;12203686;19;20021;-79
2023/03/30 15:29:15;;;;;;;3.40;0.80;;;;;;;18.87;52.09;99200.72;12212925;19;20367;-80
2023/03/30 15:33:40;;;;;;;4.32;1.27;;;;;;;19.41;49.80;99186.66;12223473;19;20017;-78
2023/03/30 15:37:54;;;;;;;3.15;0.60;;;;;;;18.94;50.08;99189.91;12266371;19;19999;-77
2023/03/30 15:42:00;;;;;;;3.35;0.80;;;;;;;18.38;51.38;99182.94;12198626;19;20101;-81
2023/03/30 15:46:09;;;;;;;3.30;1.65;;;;;;;18.09;53.09;99181.44;12204107;19;20023;-81
2023/03/30 15:50:13;;;;;;;7.07;1.42;;;;;;;17.73;55.38;99167.47;12196701;19;20011;-78
2023/03/30 15:54:19;;;;;;;2.42;0.70;;;;;;;17.54;56.95;99170.38;12185759;19;20024;-80
2023/03/30 15:58:25;;;;;;;6.55;1.60;;;;;;;17.24;56.89;99167.09;12205462;19;20045;-80
2023/03/30 16:02:29;;;;;;;4.13;0.90;;;;;;;17.16;56.63;99165.03;12183766;19;20027;-79
2023/03/30 16:06:31;;;;;;;4.20;0.73;;;;;;;16.93;59.42;99177.19;12202665;19;20531;-78
2023/03/30 16:10:37;;;;;;;7.03;1.00;;;;;;;16.33;66.43;99198.22;12203111;19;20006;-79
2023/03/30 16:14:39;;;;;;;8.50;1.85;;;;;;;15.03;100.00;99298.44;12181766;19;20038;-81
2023/03/30 16:18:44;;;;;;;8.60;1.52;;;;;;;13.26;100.00;99227.22;12207829;19;20014;-82
2023/03/30 16:22:47;;;;;;;7.53;1.10;;;;;;;12.44;100.00;99222.63;12200372;19;20444;-82
2023/03/30 16:26:50;;;;;;;5.13;0.85;;;;;;;12.05;100.00;99220.41;12190165;19;20349;-82
2023/03/30 16:30:56;;;;;;;5.53;1.23;;;;;;;12.07;100.00;99229.22;12203869;19;20070;-81
2023/03/30 16:34:58;;;;;;;5.32;1.45;;;;;;;12.32;100.00;99220.13;12201778;19;20003;-81
2023/03/30 16:39:00;;;;;;;5.82;1.80;;;;;;;12.93;100.00;99218.41;12183339;19;20035;-81
2023/03/30 16:43:02;;;;;;;5.05;1.70;;;;;;;13.42;100.00;99215.00;12199104;19;20032;-81
2023/03/30 16:47:04;;;;;;;4.90;1.45;;;;;;;13.15;100.00;99209.81;12199520;19;20015;-82
2023/03/30 16:51:09;;;;;;;3.90;1.20;;;;;;;12.81;100.00;99207.66;12177336;19;20006;-80
2023/03/30 16:55:11;;;;;;;6.72;1.10;;;;;;;12.64;100.00;99207.97;12200015;19;20035;-81
2023/03/30 16:59:21;;;;;;;4.82;1.35;;;;;;;12.58;100.00;99217.34;12202948;19;19999;-80
2023/03/30 17:03:23;;;;;;;3.22;1.30;;;;;;;12.59;100.00;99221.78;12175013;19;20100;-81
2023/03/30 17:07:25;;;;;;;8.40;1.63;;;;;;;12.63;100.00;99222.88;12198895;19;20035;-80
2023/03/30 17:11:28;;;;;;;2.47;0.70;;;;;;;12.58;100.00;99217.34;12174224;19;20021;-81
2023/03/30 17:15:37;;;;;;;2.17;1.00;;;;;;;12.27;100.00;99217.38;12203285;19;20062;-80
2023/03/30 17:19:39;;;;;;;2.38;0.77;;;;;;;12.07;100.00;99211.81;12232778;19;20014;-80
2023/03/30 17:23:43;;;;;;;6.68;0.85;;;;;;;11.91;100.00;99219.25;12176015;19;20007;-79
2023/03/30 17:27:47;;;;;;;2.65;0.63;;;;;;;11.83;100.00;99217.00;12196363;19;20027;-80
2023/03/30 17:31:50;;;;;;;5.28;1.30;;;;;;;11.91;100.00;99235.00;12186972;19;20014;-79
2023/03/30 17:35:54;;;;;;;5.07;1.10;;;;;;;11.73;100.00;99228.03;12185079;19;20015;-79
2023/03/30 17:39:56;;;;;;;10.65;1.60;;;;;;;11.54;100.00;99236.81;12200390;19;20503;-80
2023/03/30 17:43:58;;;;;;;3.08;1.40;;;;;;;11.49;100.00;99246.97;12198545;19;20090;-80
2023/03/30 17:48:01;;;;;;;5.13;1.00;;;;;;;11.47;100.00;99244.47;12180475;19;20006;-80
2023/03/30 17:52:03;;;;;;;7.32;1.10;;;;;;;11.46;100.00;99250.28;12198809;19;20765;-79
2023/03/30 17:56:05;;;;;;;7.00;1.30;;;;;;;11.38;100.00;99248.84;12199129;19;20377;-79
2023/03/30 18:00:27;;;;;;;3.97;1.00;;;;;;;11.41;100.00;99249.13;12179219;19;21245;-79
2023/03/30 18:04:29;;;;;;;6.45;1.10;;;;;;;11.41;100.00;99254.66;12202291;19;20130;-80
2023/03/30 18:08:32;;;;;;;5.05;1.25;;;;;;;11.44;100.00;99258.81;12185739;19;20017;-80
2023/03/30 18:12:34;;;;;;;5.67;1.13;;;;;;;11.42;100.00;99258.25;12198642;19;20013;-79
2023/03/30 18:16:39;;;;;;;2.92;1.60;;;;;;;11.44;100.00;99258.81;12206483;19;20461;-79
2023/03/30 18:20:45;;;;;;;6.70;1.13;;;;;;;11.52;100.00;99268.50;12194472;19;20018;-78
2023/03/30 18:24:47;;;;;;;9.27;1.73;;;;;;;11.58;100.00;99271.03;12224386;19;20044;-79
2023/03/30 18:28:49;;;;;;;7.18;2.65;;;;;;;11.68;100.00;99275.75;12227213;19;20028;-78
2023/03/30 18:32:52;;;;;;;6.33;1.60;;;;;;;11.76;100.00;99286.25;12179376;19;20014;-80
2023/03/30 18:36:54;;;;;;;4.73;1.40;;;;;;;11.80;100.00;99275.50;12201802;19;20010;-79
2023/03/30 18:41:00;;;;;;;6.27;1.33;;;;;;;11.86;100.00;99282.72;12206760;19;20248;-79
2023/03/30 18:45:02;;;;;;;8.90;1.42;;;;;;;11.91;100.00;99287.47;12189773;19;20526;-78
2023/03/30 18:49:04;;;;;;;6.97;1.40;;;;;;;11.94;100.00;99284.16;12254566;19;20008;-80
2023/03/30 18:53:18;;;;;;;5.20;1.63;;;;;;;11.99;100.00;99297.97;12225153;19;20002;-81
2023/03/30 18:57:20;;;;;;;5.75;1.50;;;;;;;12.04;100.00;99297.97;12185721;19;20011;-79
2023/03/30 19:01:22;;;;;;;5.25;1.17;;;;;;;12.07;100.00;99300.19;12205130;19;21359;-79
2023/03/30 19:05:26;;;;;;;5.90;1.27;;;;;;;12.13;100.00;99301.88;12203686;19;20014;-79
2023/03/30 19:09:28;;;;;;;6.32;1.20;;;;;;;12.22;100.00;99313.22;12182647;19;20028;-80
2023/03/30 19:13:45;;;;;;;5.93;1.33;;;;;;;12.31;100.00;99315.19;12202367;19;20007;-81